sensor_id;sensor_type;location;lat;lon;timestamp;temperature;humidity
2409;DHT22;8463;48.094;7.970;2022-08-19T00:02:05;19.40;78.50
2409;DHT22;8463;48.094;7.970;2022-08-19T00:04:33;19.40;78.70
2409;DHT22;8463;48.094;7.970;2022-08-19T00:07:02;19.30;78.20
2409;DHT22;8463;48.094;7.970;2022-08-19T00:09:29;19.40;78.00
2409;DHT22;8463;48.094;7.970;2022-08-19T00:11:55;19.40;78.40
2409;DHT22;8463;48.094;7.970;2022-08-19T00:14:22;19.40;78.20
2409;DHT22;8463;48.094;7.970;2022-08-19T00:16:49;19.20;77.60
2409;DHT22;8463;48.094;7.970;2022-08-19T00:19:16;19.20;78.20
2409;DHT22;8463;48.094;7.970;2022-08-19T00:21:42;19.10;78.90
2409;DHT22;8463;48.094;7.970;2022-08-19T00:24:10;19.20;79.50
2409;DHT22;8463;48.094;7.970;2022-08-19T00:26:37;19.20;79.60
2409;DHT22;8463;48.094;7.970;2022-08-19T00:29:03;19.20;79.30
2409;DHT22;8463;48.094;7.970;2022-08-19T00:31:29;19.20;79.40
2409;DHT22;8463;48.094;7.970;2022-08-19T00:33:56;19.20;79.10
2409;DHT22;8463;48.094;7.970;2022-08-19T00:36:22;19.30;79.00
2409;DHT22;8463;48.094;7.970;2022-08-19T00:38:48;19.30;78.90
2409;DHT22;8463;48.094;7.970;2022-08-19T00:41:16;19.30;78.80
2409;DHT22;8463;48.094;7.970;2022-08-19T00:46:38;19.10;78.90
2409;DHT22;8463;48.094;7.970;2022-08-19T00:51:47;19.00;80.00
2409;DHT22;8463;48.094;7.970;2022-08-19T00:54:15;18.90;80.10
2409;DHT22;8463;48.094;7.970;2022-08-19T00:56:41;19.00;80.60
2409;DHT22;8463;48.094;7.970;2022-08-19T00:59:08;19.00;80.70
2409;DHT22;8463;48.094;7.970;2022-08-19T01:01:42;19.00;80.00
2409;DHT22;8463;48.094;7.970;2022-08-19T01:04:09;19.00;80.50
2409;DHT22;8463;48.094;7.970;2022-08-19T01:06:39;19.10;80.60
2409;DHT22;8463;48.094;7.970;2022-08-19T01:09:07;19.10;80.40
2409;DHT22;8463;48.094;7.970;2022-08-19T01:11:36;19.10;80.00
2409;DHT22;8463;48.094;7.970;2022-08-19T01:14:04;19.20;80.50
2409;DHT22;8463;48.094;7.970;2022-08-19T01:16:31;19.20;79.10
2409;DHT22;8463;48.094;7.970;2022-08-19T01:18:57;19.10;79.50
2409;DHT22;8463;48.094;7.970;2022-08-19T01:21:51;19.10;79.60
2409;DHT22;8463;48.094;7.970;2022-08-19T01:24:18;19.20;79.90
2409;DHT22;8463;48.094;7.970;2022-08-19T01:26:46;19.20;79.90
2409;DHT22;8463;48.094;7.970;2022-08-19T01:29:13;19.20;79.80
2409;DHT22;8463;48.094;7.970;2022-08-19T01:31:39;19.20;79.70
2409;DHT22;8463;48.094;7.970;2022-08-19T01:34:06;19.20;79.60
2409;DHT22;8463;48.094;7.970;2022-08-19T01:36:39;19.00;79.60
2409;DHT22;8463;48.094;7.970;2022-08-19T01:39:11;19.10;79.90
2409;DHT22;8463;48.094;7.970;2022-08-19T01:41:37;19.10;80.40
2409;DHT22;8463;48.094;7.970;2022-08-19T01:44:05;19.10;79.90
2409;DHT22;8463;48.094;7.970;2022-08-19T01:46:32;19.10;79.90
2409;DHT22;8463;48.094;7.970;2022-08-19T01:48:58;19.10;80.30
2409;DHT22;8463;48.094;7.970;2022-08-19T01:51:24;19.10;79.60
2409;DHT22;8463;48.094;7.970;2022-08-19T01:53:50;19.10;80.30
2409;DHT22;8463;48.094;7.970;2022-08-19T01:56:17;19.10;80.80
2409;DHT22;8463;48.094;7.970;2022-08-19T01:58:50;19.10;80.30
2409;DHT22;8463;48.094;7.970;2022-08-19T02:01:17;19.10;80.80
2409;DHT22;8463;48.094;7.970;2022-08-19T02:03:43;19.10;80.80
2409;DHT22;8463;48.094;7.970;2022-08-19T02:06:09;19.10;80.70
2409;DHT22;8463;48.094;7.970;2022-08-19T02:08:36;19.10;80.20
2409;DHT22;8463;48.094;7.970;2022-08-19T02:11:03;19.00;80.20
2409;DHT22;8463;48.094;7.970;2022-08-19T02:13:29;19.00;80.50
2409;DHT22;8463;48.094;7.970;2022-08-19T02:15:54;18.80;81.00
2409;DHT22;8463;48.094;7.970;2022-08-19T02:18:20;18.80;81.40
2409;DHT22;8463;48.094;7.970;2022-08-19T02:20:46;18.90;81.70
2409;DHT22;8463;48.094;7.970;2022-08-19T02:23:15;18.90;82.20
2409;DHT22;8463;48.094;7.970;2022-08-19T02:25:44;18.90;82.10
2409;DHT22;8463;48.094;7.970;2022-08-19T02:28:10;18.90;82.00
2409;DHT22;8463;48.094;7.970;2022-08-19T02:30:37;19.00;82.10
2409;DHT22;8463;48.094;7.970;2022-08-19T02:33:04;19.10;81.60
2409;DHT22;8463;48.094;7.970;2022-08-19T02:35:30;19.10;82.00
2409;DHT22;8463;48.094;7.970;2022-08-19T02:37:55;19.10;81.00
2409;DHT22;8463;48.094;7.970;2022-08-19T02:40:40;19.00;80.60
2409;DHT22;8463;48.094;7.970;2022-08-19T02:43:07;19.10;81.00
2409;DHT22;8463;48.094;7.970;2022-08-19T02:45:38;19.00;81.20
2409;DHT22;8463;48.094;7.970;2022-08-19T02:48:07;19.00;81.10
2409;DHT22;8463;48.094;7.970;2022-08-19T02:50:40;19.00;80.70
2409;DHT22;8463;48.094;7.970;2022-08-19T02:53:05;19.00;81.20
2409;DHT22;8463;48.094;7.970;2022-08-19T02:55:33;19.10;81.00
2409;DHT22;8463;48.094;7.970;2022-08-19T02:57:59;19.10;80.80
2409;DHT22;8463;48.094;7.970;2022-08-19T03:00:26;19.10;80.60
2409;DHT22;8463;48.094;7.970;2022-08-19T03:02:52;19.00;80.30
2409;DHT22;8463;48.094;7.970;2022-08-19T03:05:18;19.00;80.50
2409;DHT22;8463;48.094;7.970;2022-08-19T03:07:43;19.00;81.00
2409;DHT22;8463;48.094;7.970;2022-08-19T03:10:10;19.10;81.20
2409;DHT22;8463;48.094;7.970;2022-08-19T03:12:37;19.10;80.60
2409;DHT22;8463;48.094;7.970;2022-08-19T03:15:05;18.90;80.30
2409;DHT22;8463;48.094;7.970;2022-08-19T03:19:58;18.90;80.50
2409;DHT22;8463;48.094;7.970;2022-08-19T03:22:24;18.90;81.70
2409;DHT22;8463;48.094;7.970;2022-08-19T03:24:50;18.90;81.50
2409;DHT22;8463;48.094;7.970;2022-08-19T03:27:16;18.90;82.00
2409;DHT22;8463;48.094;7.970;2022-08-19T03:29:43;18.90;82.00
2409;DHT22;8463;48.094;7.970;2022-08-19T03:32:09;18.90;82.10
2409;DHT22;8463;48.094;7.970;2022-08-19T03:34:37;19.00;81.80
2409;DHT22;8463;48.094;7.970;2022-08-19T03:37:08;19.00;82.30
2409;DHT22;8463;48.094;7.970;2022-08-19T03:39:37;19.10;82.30
2409;DHT22;8463;48.094;7.970;2022-08-19T03:42:04;19.10;82.20
2409;DHT22;8463;48.094;7.970;2022-08-19T03:44:31;19.10;81.20
2409;DHT22;8463;48.094;7.970;2022-08-19T03:46:59;19.10;81.30
2409;DHT22;8463;48.094;7.970;2022-08-19T03:49:28;19.10;81.70
2409;DHT22;8463;48.094;7.970;2022-08-19T03:51:55;19.00;81.30
2409;DHT22;8463;48.094;7.970;2022-08-19T03:54:23;18.90;81.10
2409;DHT22;8463;48.094;7.970;2022-08-19T03:56:51;18.80;81.00
2409;DHT22;8463;48.094;7.970;2022-08-19T03:59:24;18.90;81.40
2409;DHT22;8463;48.094;7.970;2022-08-19T04:01:52;18.90;81.70
2409;DHT22;8463;48.094;7.970;2022-08-19T04:04:18;18.90;81.90
2409;DHT22;8463;48.094;7.970;2022-08-19T04:06:44;19.00;81.90
2409;DHT22;8463;48.094;7.970;2022-08-19T04:09:12;19.00;81.90
2409;DHT22;8463;48.094;7.970;2022-08-19T04:11:50;19.00;81.90
2409;DHT22;8463;48.094;7.970;2022-08-19T04:14:20;19.10;82.40
2409;DHT22;8463;48.094;7.970;2022-08-19T04:16:48;19.00;81.40
2409;DHT22;8463;48.094;7.970;2022-08-19T04:19:15;19.10;81.00
2409;DHT22;8463;48.094;7.970;2022-08-19T04:21:43;19.10;81.40
2409;DHT22;8463;48.094;7.970;2022-08-19T04:24:10;19.00;81.10
2409;DHT22;8463;48.094;7.970;2022-08-19T04:26:36;19.00;81.20
2409;DHT22;8463;48.094;7.970;2022-08-19T04:29:12;19.10;81.00
2409;DHT22;8463;48.094;7.970;2022-08-19T04:31:39;19.10;81.00
2409;DHT22;8463;48.094;7.970;2022-08-19T04:34:07;19.10;81.40
2409;DHT22;8463;48.094;7.970;2022-08-19T04:36:35;19.10;80.80
2409;DHT22;8463;48.094;7.970;2022-08-19T04:39:04;19.10;81.20
2409;DHT22;8463;48.094;7.970;2022-08-19T04:41:31;19.10;81.40
2409;DHT22;8463;48.094;7.970;2022-08-19T04:46:44;19.10;81.40
2409;DHT22;8463;48.094;7.970;2022-08-19T04:49:10;19.20;81.40
2409;DHT22;8463;48.094;7.970;2022-08-19T04:51:36;19.20;81.00
2409;DHT22;8463;48.094;7.970;2022-08-19T04:54:03;19.20;81.40
2409;DHT22;8463;48.094;7.970;2022-08-19T04:56:29;19.30;81.30
2409;DHT22;8463;48.094;7.970;2022-08-19T04:58:56;19.20;80.10
2409;DHT22;8463;48.094;7.970;2022-08-19T05:01:27;19.20;80.60
2409;DHT22;8463;48.094;7.970;2022-08-19T05:03:55;19.10;80.30
2409;DHT22;8463;48.094;7.970;2022-08-19T05:06:22;19.00;80.50
2409;DHT22;8463;48.094;7.970;2022-08-19T05:08:48;19.00;81.00
2409;DHT22;8463;48.094;7.970;2022-08-19T05:11:20;19.00;81.20
2409;DHT22;8463;48.094;7.970;2022-08-19T05:13:47;18.90;81.50
2409;DHT22;8463;48.094;7.970;2022-08-19T05:16:15;18.90;81.70
2409;DHT22;8463;48.094;7.970;2022-08-19T05:18:41;18.80;81.50
2409;DHT22;8463;48.094;7.970;2022-08-19T05:21:26;18.70;82.00
2409;DHT22;8463;48.094;7.970;2022-08-19T05:24:10;18.60;82.10
2409;DHT22;8463;48.094;7.970;2022-08-19T05:26:37;18.60;82.70
2409;DHT22;8463;48.094;7.970;2022-08-19T05:29:04;18.80;82.60
2409;DHT22;8463;48.094;7.970;2022-08-19T05:31:31;18.80;82.20
2409;DHT22;8463;48.094;7.970;2022-08-19T05:33:57;18.80;82.30
2409;DHT22;8463;48.094;7.970;2022-08-19T05:36:27;18.80;82.00
2409;DHT22;8463;48.094;7.970;2022-08-19T05:38:53;18.80;82.40
2409;DHT22;8463;48.094;7.970;2022-08-19T05:41:20;18.90;82.80
2409;DHT22;8463;48.094;7.970;2022-08-19T05:43:46;18.90;82.50
2409;DHT22;8463;48.094;7.970;2022-08-19T05:46:19;19.00;82.20
2409;DHT22;8463;48.094;7.970;2022-08-19T05:48:46;19.00;81.70
2409;DHT22;8463;48.094;7.970;2022-08-19T05:51:12;18.90;82.10
2409;DHT22;8463;48.094;7.970;2022-08-19T05:53:38;18.90;82.50
2409;DHT22;8463;48.094;7.970;2022-08-19T05:56:08;18.90;82.50
2409;DHT22;8463;48.094;7.970;2022-08-19T05:58:35;18.90;82.60
2409;DHT22;8463;48.094;7.970;2022-08-19T06:01:02;18.90;83.20
2409;DHT22;8463;48.094;7.970;2022-08-19T06:03:32;19.00;83.20
2409;DHT22;8463;48.094;7.970;2022-08-19T06:05:58;18.90;81.10
2409;DHT22;8463;48.094;7.970;2022-08-19T06:08:26;18.90;81.60
2409;DHT22;8463;48.094;7.970;2022-08-19T06:10:52;19.00;80.90
2409;DHT22;8463;48.094;7.970;2022-08-19T06:13:17;18.90;80.80
2409;DHT22;8463;48.094;7.970;2022-08-19T06:15:45;18.90;81.30
2409;DHT22;8463;48.094;7.970;2022-08-19T06:18:12;19.00;81.40
2409;DHT22;8463;48.094;7.970;2022-08-19T06:20:39;19.10;81.50
2409;DHT22;8463;48.094;7.970;2022-08-19T06:23:04;19.10;80.50
2409;DHT22;8463;48.094;7.970;2022-08-19T06:25:30;19.00;80.00
2409;DHT22;8463;48.094;7.970;2022-08-19T06:27:56;19.00;80.50
2409;DHT22;8463;48.094;7.970;2022-08-19T06:30:22;19.00;80.70
2409;DHT22;8463;48.094;7.970;2022-08-19T06:32:47;19.00;81.20
2409;DHT22;8463;48.094;7.970;2022-08-19T06:35:13;19.10;81.20
2409;DHT22;8463;48.094;7.970;2022-08-19T06:37:40;19.00;80.40
2409;DHT22;8463;48.094;7.970;2022-08-19T06:40:07;18.90;80.60
2409;DHT22;8463;48.094;7.970;2022-08-19T06:42:34;18.90;81.00
2409;DHT22;8463;48.094;7.970;2022-08-19T06:45:00;18.90;81.00
2409;DHT22;8463;48.094;7.970;2022-08-19T06:47:29;19.00;81.50
2409;DHT22;8463;48.094;7.970;2022-08-19T06:49:56;19.00;80.60
2409;DHT22;8463;48.094;7.970;2022-08-19T06:52:33;19.00;81.10
2409;DHT22;8463;48.094;7.970;2022-08-19T06:55:01;19.10;80.10
2409;DHT22;8463;48.094;7.970;2022-08-19T06:57:27;19.10;80.30
2409;DHT22;8463;48.094;7.970;2022-08-19T06:59:56;19.10;79.70
2409;DHT22;8463;48.094;7.970;2022-08-19T07:02:22;19.10;80.30
2409;DHT22;8463;48.094;7.970;2022-08-19T07:04:51;19.10;80.40
2409;DHT22;8463;48.094;7.970;2022-08-19T07:07:18;19.30;81.20
2409;DHT22;8463;48.094;7.970;2022-08-19T07:09:45;19.20;81.50
2409;DHT22;8463;48.094;7.970;2022-08-19T07:12:12;19.40;80.50
2409;DHT22;8463;48.094;7.970;2022-08-19T07:14:40;19.40;80.60
2409;DHT22;8463;48.094;7.970;2022-08-19T07:17:08;19.50;79.50
2409;DHT22;8463;48.094;7.970;2022-08-19T07:19:35;19.50;79.20
2409;DHT22;8463;48.094;7.970;2022-08-19T07:22:02;19.50;79.20
2409;DHT22;8463;48.094;7.970;2022-08-19T07:24:29;19.50;77.30
2409;DHT22;8463;48.094;7.970;2022-08-19T07:26:58;19.50;77.80
2409;DHT22;8463;48.094;7.970;2022-08-19T07:29:27;19.40;77.20
2409;DHT22;8463;48.094;7.970;2022-08-19T07:31:54;19.40;78.50
2409;DHT22;8463;48.094;7.970;2022-08-19T07:34:25;19.40;78.60
2409;DHT22;8463;48.094;7.970;2022-08-19T07:36:51;19.50;77.90
2409;DHT22;8463;48.094;7.970;2022-08-19T07:39:24;19.50;78.40
2409;DHT22;8463;48.094;7.970;2022-08-19T07:41:51;19.60;77.30
2409;DHT22;8463;48.094;7.970;2022-08-19T07:44:18;19.40;76.30
2409;DHT22;8463;48.094;7.970;2022-08-19T07:46:49;19.40;77.30
2409;DHT22;8463;48.094;7.970;2022-08-19T07:49:16;19.40;78.30
2409;DHT22;8463;48.094;7.970;2022-08-19T07:52:00;19.40;78.50
2409;DHT22;8463;48.094;7.970;2022-08-19T07:54:27;19.40;77.60
2409;DHT22;8463;48.094;7.970;2022-08-19T07:56:54;19.40;77.80
2409;DHT22;8463;48.094;7.970;2022-08-19T07:59:20;19.40;77.60
2409;DHT22;8463;48.094;7.970;2022-08-19T08:01:47;19.40;78.20
2409;DHT22;8463;48.094;7.970;2022-08-19T08:04:13;19.40;77.60
2409;DHT22;8463;48.094;7.970;2022-08-19T08:06:58;19.40;77.70
2409;DHT22;8463;48.094;7.970;2022-08-19T08:09:43;19.40;77.50
2409;DHT22;8463;48.094;7.970;2022-08-19T08:12:39;19.40;77.90
2409;DHT22;8463;48.094;7.970;2022-08-19T08:15:13;19.40;77.00
2409;DHT22;8463;48.094;7.970;2022-08-19T08:17:44;19.40;77.00
2409;DHT22;8463;48.094;7.970;2022-08-19T08:20:11;19.50;77.70
2409;DHT22;8463;48.094;7.970;2022-08-19T08:22:37;19.50;77.80
2409;DHT22;8463;48.094;7.970;2022-08-19T08:25:26;19.50;77.80
2409;DHT22;8463;48.094;7.970;2022-08-19T08:27:52;19.60;78.10
2409;DHT22;8463;48.094;7.970;2022-08-19T08:30:23;19.60;78.60
2409;DHT22;8463;48.094;7.970;2022-08-19T08:32:49;19.60;77.80
2409;DHT22;8463;48.094;7.970;2022-08-19T08:35:17;19.60;76.00
2409;DHT22;8463;48.094;7.970;2022-08-19T08:37:45;19.60;76.50
2409;DHT22;8463;48.094;7.970;2022-08-19T08:43:02;19.50;76.70
2409;DHT22;8463;48.094;7.970;2022-08-19T08:45:30;19.50;76.90
2409;DHT22;8463;48.094;7.970;2022-08-19T08:48:02;19.50;78.00
2409;DHT22;8463;48.094;7.970;2022-08-19T08:50:34;19.60;77.90
2409;DHT22;8463;48.094;7.970;2022-08-19T08:53:04;19.60;77.70
2409;DHT22;8463;48.094;7.970;2022-08-19T08:55:31;19.60;75.90
2409;DHT22;8463;48.094;7.970;2022-08-19T08:58:05;19.60;76.40
2409;DHT22;8463;48.094;7.970;2022-08-19T09:00:38;19.80;76.00
2409;DHT22;8463;48.094;7.970;2022-08-19T09:03:26;19.80;75.00
2409;DHT22;8463;48.094;7.970;2022-08-19T09:06:04;19.80;76.40
2409;DHT22;8463;48.094;7.970;2022-08-19T09:08:51;19.80;74.60
2409;DHT22;8463;48.094;7.970;2022-08-19T09:11:33;19.70;74.60
2409;DHT22;8463;48.094;7.970;2022-08-19T09:16:53;19.70;74.60
2409;DHT22;8463;48.094;7.970;2022-08-19T09:19:19;19.80;74.70
2409;DHT22;8463;48.094;7.970;2022-08-19T09:21:44;19.80;74.70
2409;DHT22;8463;48.094;7.970;2022-08-19T09:24:10;19.70;74.70
2409;DHT22;8463;48.094;7.970;2022-08-19T09:26:36;19.80;75.40
2409;DHT22;8463;48.094;7.970;2022-08-19T09:29:02;20.00;75.20
2409;DHT22;8463;48.094;7.970;2022-08-19T09:31:31;20.00;75.40
2409;DHT22;8463;48.094;7.970;2022-08-19T09:33:58;20.10;76.30
2409;DHT22;8463;48.094;7.970;2022-08-19T09:36:27;20.20;76.90
2409;DHT22;8463;48.094;7.970;2022-08-19T09:38:55;20.20;70.50
2409;DHT22;8463;48.094;7.970;2022-08-19T09:41:24;20.30;71.50
2409;DHT22;8463;48.094;7.970;2022-08-19T09:43:52;20.20;71.30
2409;DHT22;8463;48.094;7.970;2022-08-19T09:46:19;20.30;71.90
2409;DHT22;8463;48.094;7.970;2022-08-19T09:48:49;20.40;71.10
2409;DHT22;8463;48.094;7.970;2022-08-19T09:51:24;20.50;71.40
2409;DHT22;8463;48.094;7.970;2022-08-19T09:53:52;20.60;71.90
2409;DHT22;8463;48.094;7.970;2022-08-19T09:56:20;20.50;72.10
2409;DHT22;8463;48.094;7.970;2022-08-19T09:58:46;20.60;69.80
2409;DHT22;8463;48.094;7.970;2022-08-19T10:01:27;20.60;70.20
2409;DHT22;8463;48.094;7.970;2022-08-19T10:03:55;20.60;67.80
2409;DHT22;8463;48.094;7.970;2022-08-19T10:06:22;20.50;67.90
2409;DHT22;8463;48.094;7.970;2022-08-19T10:08:48;20.60;68.20
2409;DHT22;8463;48.094;7.970;2022-08-19T10:11:14;20.50;67.80
2409;DHT22;8463;48.094;7.970;2022-08-19T10:13:42;20.40;67.40
2409;DHT22;8463;48.094;7.970;2022-08-19T10:16:14;20.50;68.10
2409;DHT22;8463;48.094;7.970;2022-08-19T10:18:40;20.50;69.60
2409;DHT22;8463;48.094;7.970;2022-08-19T10:21:14;20.50;68.30
2409;DHT22;8463;48.094;7.970;2022-08-19T10:23:43;20.50;68.70
2409;DHT22;8463;48.094;7.970;2022-08-19T10:26:12;20.50;68.00
2409;DHT22;8463;48.094;7.970;2022-08-19T10:28:38;20.50;67.80
2409;DHT22;8463;48.094;7.970;2022-08-19T10:31:05;20.50;67.70
2409;DHT22;8463;48.094;7.970;2022-08-19T10:33:32;20.70;66.70
2409;DHT22;8463;48.094;7.970;2022-08-19T10:36:03;20.70;67.20
2409;DHT22;8463;48.094;7.970;2022-08-19T10:38:30;20.90;67.70
2409;DHT22;8463;48.094;7.970;2022-08-19T10:40:57;21.10;66.50
2409;DHT22;8463;48.094;7.970;2022-08-19T10:43:22;21.20;62.80
2409;DHT22;8463;48.094;7.970;2022-08-19T10:45:52;21.30;60.60
2409;DHT22;8463;48.094;7.970;2022-08-19T10:48:20;21.20;60.60
2409;DHT22;8463;48.094;7.970;2022-08-19T10:50:45;21.10;60.00
2409;DHT22;8463;48.094;7.970;2022-08-19T10:53:29;21.10;59.70
2409;DHT22;8463;48.094;7.970;2022-08-19T10:55:55;21.20;60.20
2409;DHT22;8463;48.094;7.970;2022-08-19T10:58:39;21.20;60.40
2409;DHT22;8463;48.094;7.970;2022-08-19T11:01:06;21.30;58.90
2409;DHT22;8463;48.094;7.970;2022-08-19T11:03:32;21.40;58.60
2409;DHT22;8463;48.094;7.970;2022-08-19T11:06:04;21.50;58.50
2409;DHT22;8463;48.094;7.970;2022-08-19T11:08:30;21.50;59.00
2409;DHT22;8463;48.094;7.970;2022-08-19T11:10:59;21.60;61.00
2409;DHT22;8463;48.094;7.970;2022-08-19T11:13:35;21.60;57.10
2409;DHT22;8463;48.094;7.970;2022-08-19T11:16:09;21.50;55.20
2409;DHT22;8463;48.094;7.970;2022-08-19T11:18:40;21.50;55.10
2409;DHT22;8463;48.094;7.970;2022-08-19T11:21:18;21.50;54.90
2409;DHT22;8463;48.094;7.970;2022-08-19T11:23:47;21.60;56.80
2409;DHT22;8463;48.094;7.970;2022-08-19T11:26:14;21.70;55.80
2409;DHT22;8463;48.094;7.970;2022-08-19T11:28:41;21.60;53.60
2409;DHT22;8463;48.094;7.970;2022-08-19T11:31:17;21.60;54.40
2409;DHT22;8463;48.094;7.970;2022-08-19T11:33:44;21.70;55.80
2409;DHT22;8463;48.094;7.970;2022-08-19T11:36:12;21.70;55.20
2409;DHT22;8463;48.094;7.970;2022-08-19T11:38:38;21.70;54.60
2409;DHT22;8463;48.094;7.970;2022-08-19T11:41:07;21.80;56.20
2409;DHT22;8463;48.094;7.970;2022-08-19T11:43:34;21.80;54.60
2409;DHT22;8463;48.094;7.970;2022-08-19T11:46:04;21.80;54.20
2409;DHT22;8463;48.094;7.970;2022-08-19T11:48:32;21.80;55.00
2409;DHT22;8463;48.094;7.970;2022-08-19T11:50:58;21.90;55.70
2409;DHT22;8463;48.094;7.970;2022-08-19T11:53:24;21.90;54.70
2409;DHT22;8463;48.094;7.970;2022-08-19T11:55:50;22.10;56.60
2409;DHT22;8463;48.094;7.970;2022-08-19T11:58:19;22.10;54.10
2409;DHT22;8463;48.094;7.970;2022-08-19T12:00:44;21.90;53.70
2409;DHT22;8463;48.094;7.970;2022-08-19T12:03:12;22.00;54.30
2409;DHT22;8463;48.094;7.970;2022-08-19T12:05:38;22.10;54.50
2409;DHT22;8463;48.094;7.970;2022-08-19T12:08:06;22.20;52.60
2409;DHT22;8463;48.094;7.970;2022-08-19T12:10:32;22.40;53.10
2409;DHT22;8463;48.094;7.970;2022-08-19T12:12:58;22.40;52.20
2409;DHT22;8463;48.094;7.970;2022-08-19T12:15:25;22.50;52.70
2409;DHT22;8463;48.094;7.970;2022-08-19T12:17:53;22.60;50.50
2409;DHT22;8463;48.094;7.970;2022-08-19T12:20:22;22.80;50.90
2409;DHT22;8463;48.094;7.970;2022-08-19T12:22:48;23.00;49.30
2409;DHT22;8463;48.094;7.970;2022-08-19T12:25:14;23.00;46.20
2409;DHT22;8463;48.094;7.970;2022-08-19T12:27:40;23.10;47.50
2409;DHT22;8463;48.094;7.970;2022-08-19T12:30:07;23.20;45.90
2409;DHT22;8463;48.094;7.970;2022-08-19T12:32:34;23.40;46.10
2409;DHT22;8463;48.094;7.970;2022-08-19T12:34:59;23.40;40.80
2409;DHT22;8463;48.094;7.970;2022-08-19T12:37:25;23.60;40.20
2409;DHT22;8463;48.094;7.970;2022-08-19T12:39:51;23.80;44.00
2409;DHT22;8463;48.094;7.970;2022-08-19T12:42:16;24.20;41.30
2409;DHT22;8463;48.094;7.970;2022-08-19T12:44:43;24.00;37.70
2409;DHT22;8463;48.094;7.970;2022-08-19T12:47:11;23.80;37.10
2409;DHT22;8463;48.094;7.970;2022-08-19T12:49:39;23.90;39.70
2409;DHT22;8463;48.094;7.970;2022-08-19T12:54:31;24.40;34.50
2409;DHT22;8463;48.094;7.970;2022-08-19T12:56:57;24.60;34.00
2409;DHT22;8463;48.094;7.970;2022-08-19T12:59:23;24.80;33.20
2409;DHT22;8463;48.094;7.970;2022-08-19T13:01:49;25.00;31.30
2409;DHT22;8463;48.094;7.970;2022-08-19T13:04:15;25.10;31.30
2409;DHT22;8463;48.094;7.970;2022-08-19T13:06:42;25.10;30.10
2409;DHT22;8463;48.094;7.970;2022-08-19T13:09:08;25.10;29.40
2409;DHT22;8463;48.094;7.970;2022-08-19T13:11:34;25.10;27.80
2409;DHT22;8463;48.094;7.970;2022-08-19T13:14:01;25.30;29.10
2409;DHT22;8463;48.094;7.970;2022-08-19T13:16:27;25.40;27.10
2409;DHT22;8463;48.094;7.970;2022-08-19T13:18:54;25.60;28.40
2409;DHT22;8463;48.094;7.970;2022-08-19T13:21:24;25.80;24.70
2409;DHT22;8463;48.094;7.970;2022-08-19T13:23:51;25.80;22.20
2409;DHT22;8463;48.094;7.970;2022-08-19T13:26:17;25.80;23.10
2409;DHT22;8463;48.094;7.970;2022-08-19T13:28:44;25.60;23.30
2409;DHT22;8463;48.094;7.970;2022-08-19T13:31:30;25.50;22.40
2409;DHT22;8463;48.094;7.970;2022-08-19T13:34:17;25.30;24.60
2409;DHT22;8463;48.094;7.970;2022-08-19T13:36:43;25.00;24.70
2409;DHT22;8463;48.094;7.970;2022-08-19T13:39:09;25.10;24.00
2409;DHT22;8463;48.094;7.970;2022-08-19T13:41:35;25.00;25.40
2409;DHT22;8463;48.094;7.970;2022-08-19T13:44:02;25.30;22.00
2409;DHT22;8463;48.094;7.970;2022-08-19T13:46:28;25.30;23.20
2409;DHT22;8463;48.094;7.970;2022-08-19T13:48:54;25.30;24.70
2409;DHT22;8463;48.094;7.970;2022-08-19T13:51:21;24.80;25.60
2409;DHT22;8463;48.094;7.970;2022-08-19T13:53:47;24.80;25.00
2409;DHT22;8463;48.094;7.970;2022-08-19T13:56:15;25.00;25.30
2409;DHT22;8463;48.094;7.970;2022-08-19T13:58:41;25.20;24.80
2409;DHT22;8463;48.094;7.970;2022-08-19T14:01:08;25.10;24.70
2409;DHT22;8463;48.094;7.970;2022-08-19T14:03:35;25.10;24.20
2409;DHT22;8463;48.094;7.970;2022-08-19T14:06:01;25.20;24.30
2409;DHT22;8463;48.094;7.970;2022-08-19T14:08:28;25.40;23.70
2409;DHT22;8463;48.094;7.970;2022-08-19T14:10:54;25.10;23.80
2409;DHT22;8463;48.094;7.970;2022-08-19T14:13:22;24.90;23.80
2409;DHT22;8463;48.094;7.970;2022-08-19T14:15:48;24.90;25.60
2409;DHT22;8463;48.094;7.970;2022-08-19T14:18:15;24.90;25.00
2409;DHT22;8463;48.094;7.970;2022-08-19T14:20:41;24.90;25.00
2409;DHT22;8463;48.094;7.970;2022-08-19T14:23:07;25.20;24.80
2409;DHT22;8463;48.094;7.970;2022-08-19T14:25:32;25.20;23.30
2409;DHT22;8463;48.094;7.970;2022-08-19T14:28:00;25.10;23.70
2409;DHT22;8463;48.094;7.970;2022-08-19T14:33:00;25.10;23.60
2409;DHT22;8463;48.094;7.970;2022-08-19T14:35:28;25.40;23.00
2409;DHT22;8463;48.094;7.970;2022-08-19T14:37:55;25.60;22.90
2409;DHT22;8463;48.094;7.970;2022-08-19T14:40:25;25.50;21.70
2409;DHT22;8463;48.094;7.970;2022-08-19T14:42:55;25.40;21.50
2409;DHT22;8463;48.094;7.970;2022-08-19T14:47:51;25.30;22.10
2409;DHT22;8463;48.094;7.970;2022-08-19T14:50:17;25.30;21.80
2409;DHT22;8463;48.094;7.970;2022-08-19T14:52:43;25.20;23.60
2409;DHT22;8463;48.094;7.970;2022-08-19T14:55:09;25.10;23.30
2409;DHT22;8463;48.094;7.970;2022-08-19T14:57:35;24.90;24.30
2409;DHT22;8463;48.094;7.970;2022-08-19T15:00:00;24.60;24.80
2409;DHT22;8463;48.094;7.970;2022-08-19T15:02:26;24.70;25.60
2409;DHT22;8463;48.094;7.970;2022-08-19T15:04:52;24.60;26.40
2409;DHT22;8463;48.094;7.970;2022-08-19T15:07:17;24.90;26.00
2409;DHT22;8463;48.094;7.970;2022-08-19T15:09:43;24.80;25.00
2409;DHT22;8463;48.094;7.970;2022-08-19T15:12:09;24.90;24.70
2409;DHT22;8463;48.094;7.970;2022-08-19T15:14:36;25.00;24.00
2409;DHT22;8463;48.094;7.970;2022-08-19T15:19:30;24.30;24.60
2409;DHT22;8463;48.094;7.970;2022-08-19T15:21:58;24.20;25.70
2409;DHT22;8463;48.094;7.970;2022-08-19T15:24:25;24.10;26.40
2409;DHT22;8463;48.094;7.970;2022-08-19T15:26:52;24.20;25.90
2409;DHT22;8463;48.094;7.970;2022-08-19T15:29:18;24.10;26.20
2409;DHT22;8463;48.094;7.970;2022-08-19T15:31:44;24.10;26.50
2409;DHT22;8463;48.094;7.970;2022-08-19T15:34:10;24.00;25.70
2409;DHT22;8463;48.094;7.970;2022-08-19T15:36:36;24.10;26.90
2409;DHT22;8463;48.094;7.970;2022-08-19T15:39:04;24.10;26.80
2409;DHT22;8463;48.094;7.970;2022-08-19T15:41:30;23.90;27.50
2409;DHT22;8463;48.094;7.970;2022-08-19T15:44:05;24.00;26.00
2409;DHT22;8463;48.094;7.970;2022-08-19T15:46:36;23.90;25.80
2409;DHT22;8463;48.094;7.970;2022-08-19T15:49:03;23.80;26.70
2409;DHT22;8463;48.094;7.970;2022-08-19T15:51:31;23.70;27.70
2409;DHT22;8463;48.094;7.970;2022-08-19T15:53:59;23.80;27.70
2409;DHT22;8463;48.094;7.970;2022-08-19T15:56:26;23.80;28.00
2409;DHT22;8463;48.094;7.970;2022-08-19T15:59:11;23.70;27.90
2409;DHT22;8463;48.094;7.970;2022-08-19T16:01:55;23.70;28.20
2409;DHT22;8463;48.094;7.970;2022-08-19T16:07:24;23.70;27.70
2409;DHT22;8463;48.094;7.970;2022-08-19T16:09:49;23.60;27.10
2409;DHT22;8463;48.094;7.970;2022-08-19T16:12:15;23.70;27.30
2409;DHT22;8463;48.094;7.970;2022-08-19T16:14:41;23.70;26.70
2409;DHT22;8463;48.094;7.970;2022-08-19T16:17:06;23.70;26.60
2409;DHT22;8463;48.094;7.970;2022-08-19T16:19:36;23.70;25.90
2409;DHT22;8463;48.094;7.970;2022-08-19T16:22:03;23.70;27.20
2409;DHT22;8463;48.094;7.970;2022-08-19T16:24:30;23.70;25.60
2409;DHT22;8463;48.094;7.970;2022-08-19T16:26:58;23.70;26.10
2409;DHT22;8463;48.094;7.970;2022-08-19T16:29:26;23.70;26.20
2409;DHT22;8463;48.094;7.970;2022-08-19T16:31:52;23.70;26.90
2409;DHT22;8463;48.094;7.970;2022-08-19T16:34:19;23.70;26.60
2409;DHT22;8463;48.094;7.970;2022-08-19T16:36:45;23.60;26.40
2409;DHT22;8463;48.094;7.970;2022-08-19T16:39:13;23.60;25.10